sensor_id;sensor_type;location;lat;lon;timestamp;P1;durP1;ratioP1;P2;durP2;ratioP2
50633;SDS011;36596;55.798;38.462;2022-08-19T00:00:35;12.07;;;7.18;;
50633;SDS011;36596;55.798;38.462;2022-08-19T00:03:01;15.98;;;8.23;;
50633;SDS011;36596;55.798;38.462;2022-08-19T00:05:29;14.52;;;6.97;;
50633;SDS011;36596;55.798;38.462;2022-08-19T00:07:55;17.17;;;8.10;;
50633;SDS011;36596;55.798;38.462;2022-08-19T00:10:22;15.05;;;7.78;;
50633;SDS011;36596;55.798;38.462;2022-08-19T00:12:49;14.48;;;7.35;;
50633;SDS011;36596;55.798;38.462;2022-08-19T00:15:17;17.95;;;7.43;;
50633;SDS011;36596;55.798;38.462;2022-08-19T00:17:45;17.52;;;7.88;;
50633;SDS011;36596;55.798;38.462;2022-08-19T00:20:13;12.13;;;7.00;;
50633;SDS011;36596;55.798;38.462;2022-08-19T00:22:43;15.60;;;7.07;;
50633;SDS011;36596;55.798;38.462;2022-08-19T00:25:10;14.50;;;7.28;;
50633;SDS011;36596;55.798;38.462;2022-08-19T00:27:37;20.50;;;6.88;;
50633;SDS011;36596;55.798;38.462;2022-08-19T00:30:04;12.65;;;6.25;;
50633;SDS011;36596;55.798;38.462;2022-08-19T00:32:31;11.35;;;6.65;;
50633;SDS011;36596;55.798;38.462;2022-08-19T00:34:57;10.50;;;6.30;;
50633;SDS011;36596;55.798;38.462;2022-08-19T00:37:24;13.52;;;5.88;;
50633;SDS011;36596;55.798;38.462;2022-08-19T00:39:52;11.52;;;6.00;;
50633;SDS011;36596;55.798;38.462;2022-08-19T00:42:19;11.88;;;6.15;;
50633;SDS011;36596;55.798;38.462;2022-08-19T00:44:46;10.40;;;5.95;;
50633;SDS011;36596;55.798;38.462;2022-08-19T00:47:12;10.88;;;5.72;;
50633;SDS011;36596;55.798;38.462;2022-08-19T00:52:20;12.57;;;5.88;;
50633;SDS011;36596;55.798;38.462;2022-08-19T00:54:49;16.80;;;5.35;;
50633;SDS011;36596;55.798;38.462;2022-08-19T00:57:18;12.18;;;5.28;;
50633;SDS011;36596;55.798;38.462;2022-08-19T00:59:52;14.95;;;5.80;;
50633;SDS011;36596;55.798;38.462;2022-08-19T01:02:21;13.77;;;5.28;;
50633;SDS011;36596;55.798;38.462;2022-08-19T01:04:49;8.50;;;5.13;;
50633;SDS011;36596;55.798;38.462;2022-08-19T01:07:15;11.20;;;5.20;;
50633;SDS011;36596;55.798;38.462;2022-08-19T01:09:41;10.65;;;5.43;;
50633;SDS011;36596;55.798;38.462;2022-08-19T01:12:07;12.65;;;5.10;;
50633;SDS011;36596;55.798;38.462;2022-08-19T01:14:36;11.43;;;5.13;;
50633;SDS011;36596;55.798;38.462;2022-08-19T01:17:05;10.50;;;4.65;;
50633;SDS011;36596;55.798;38.462;2022-08-19T01:19:36;11.57;;;5.45;;
50633;SDS011;36596;55.798;38.462;2022-08-19T01:22:17;12.45;;;5.15;;
50633;SDS011;36596;55.798;38.462;2022-08-19T01:24:48;16.23;;;4.90;;
50633;SDS011;36596;55.798;38.462;2022-08-19T01:27:15;8.82;;;4.78;;
50633;SDS011;36596;55.798;38.462;2022-08-19T01:29:42;9.35;;;4.60;;
50633;SDS011;36596;55.798;38.462;2022-08-19T01:32:11;7.07;;;3.92;;
50633;SDS011;36596;55.798;38.462;2022-08-19T01:34:40;10.73;;;5.18;;
50633;SDS011;36596;55.798;38.462;2022-08-19T01:37:07;10.05;;;4.72;;
50633;SDS011;36596;55.798;38.462;2022-08-19T01:39:36;10.93;;;5.05;;
50633;SDS011;36596;55.798;38.462;2022-08-19T01:42:04;9.98;;;4.75;;
50633;SDS011;36596;55.798;38.462;2022-08-19T01:44:32;12.10;;;4.93;;
50633;SDS011;36596;55.798;38.462;2022-08-19T01:46:58;10.75;;;5.00;;
50633;SDS011;36596;55.798;38.462;2022-08-19T01:49:25;8.75;;;4.68;;
50633;SDS011;36596;55.798;38.462;2022-08-19T01:51:53;9.45;;;4.78;;
50633;SDS011;36596;55.798;38.462;2022-08-19T01:54:22;8.70;;;4.07;;
50633;SDS011;36596;55.798;38.462;2022-08-19T01:56:53;13.93;;;4.70;;
50633;SDS011;36596;55.798;38.462;2022-08-19T01:59:26;6.65;;;4.30;;
50633;SDS011;36596;55.798;38.462;2022-08-19T02:01:52;10.52;;;4.75;;
50633;SDS011;36596;55.798;38.462;2022-08-19T02:04:18;8.15;;;4.30;;
50633;SDS011;36596;55.798;38.462;2022-08-19T02:06:44;10.95;;;4.75;;
50633;SDS011;36596;55.798;38.462;2022-08-19T02:09:10;11.07;;;4.55;;
50633;SDS011;36596;55.798;38.462;2022-08-19T02:11:36;9.52;;;4.50;;
50633;SDS011;36596;55.798;38.462;2022-08-19T02:14:04;11.00;;;5.13;;
50633;SDS011;36596;55.798;38.462;2022-08-19T02:16:33;10.90;;;4.65;;
50633;SDS011;36596;55.798;38.462;2022-08-19T02:19:01;11.80;;;4.90;;
50633;SDS011;36596;55.798;38.462;2022-08-19T02:21:28;8.90;;;4.90;;
50633;SDS011;36596;55.798;38.462;2022-08-19T02:23:55;11.63;;;4.43;;
50633;SDS011;36596;55.798;38.462;2022-08-19T02:26:22;12.13;;;5.10;;
50633;SDS011;36596;55.798;38.462;2022-08-19T02:28:51;10.45;;;4.30;;
50633;SDS011;36596;55.798;38.462;2022-08-19T02:31:21;14.38;;;5.57;;
50633;SDS011;36596;55.798;38.462;2022-08-19T02:33:48;9.98;;;5.10;;
50633;SDS011;36596;55.798;38.462;2022-08-19T02:36:15;9.45;;;5.07;;
50633;SDS011;36596;55.798;38.462;2022-08-19T02:38:43;7.53;;;5.00;;
50633;SDS011;36596;55.798;38.462;2022-08-19T02:41:14;10.93;;;4.95;;
50633;SDS011;36596;55.798;38.462;2022-08-19T02:43:45;10.77;;;5.43;;
50633;SDS011;36596;55.798;38.462;2022-08-19T02:46:13;8.43;;;4.68;;
50633;SDS011;36596;55.798;38.462;2022-08-19T02:48:49;12.30;;;4.85;;
50633;SDS011;36596;55.798;38.462;2022-08-19T02:51:17;12.13;;;4.85;;
50633;SDS011;36596;55.798;38.462;2022-08-19T02:53:50;11.00;;;4.82;;
50633;SDS011;36596;55.798;38.462;2022-08-19T02:56:17;9.05;;;3.80;;
50633;SDS011;36596;55.798;38.462;2022-08-19T02:58:45;7.38;;;4.13;;
50633;SDS011;36596;55.798;38.462;2022-08-19T03:03:51;8.35;;;3.47;;
50633;SDS011;36596;55.798;38.462;2022-08-19T03:06:17;5.90;;;3.38;;
50633;SDS011;36596;55.798;38.462;2022-08-19T03:08:44;12.45;;;3.45;;
50633;SDS011;36596;55.798;38.462;2022-08-19T03:11:21;6.90;;;3.08;;
50633;SDS011;36596;55.798;38.462;2022-08-19T03:13:49;9.23;;;3.30;;
50633;SDS011;36596;55.798;38.462;2022-08-19T03:16:17;6.13;;;2.90;;
50633;SDS011;36596;55.798;38.462;2022-08-19T03:18:44;7.90;;;2.90;;
50633;SDS011;36596;55.798;38.462;2022-08-19T03:21:14;7.07;;;3.13;;
50633;SDS011;36596;55.798;38.462;2022-08-19T03:23:41;5.50;;;2.88;;
50633;SDS011;36596;55.798;38.462;2022-08-19T03:26:08;7.35;;;2.65;;
50633;SDS011;36596;55.798;38.462;2022-08-19T03:28:34;4.35;;;2.72;;
50633;SDS011;36596;55.798;38.462;2022-08-19T03:31:02;10.18;;;2.92;;
50633;SDS011;36596;55.798;38.462;2022-08-19T03:33:38;9.18;;;3.17;;
50633;SDS011;36596;55.798;38.462;2022-08-19T03:38:31;10.07;;;3.10;;
50633;SDS011;36596;55.798;38.462;2022-08-19T03:41:03;5.05;;;2.85;;
50633;SDS011;36596;55.798;38.462;2022-08-19T03:43:32;7.85;;;3.00;;
50633;SDS011;36596;55.798;38.462;2022-08-19T03:46:16;10.05;;;3.63;;
50633;SDS011;36596;55.798;38.462;2022-08-19T03:48:46;5.55;;;2.72;;
50633;SDS011;36596;55.798;38.462;2022-08-19T03:51:18;5.07;;;2.45;;
50633;SDS011;36596;55.798;38.462;2022-08-19T03:53:47;5.47;;;2.72;;
50633;SDS011;36596;55.798;38.462;2022-08-19T03:56:16;6.13;;;2.55;;
50633;SDS011;36596;55.798;38.462;2022-08-19T03:58:42;8.50;;;3.03;;
50633;SDS011;36596;55.798;38.462;2022-08-19T04:01:17;7.28;;;2.50;;
50633;SDS011;36596;55.798;38.462;2022-08-19T04:03:45;7.78;;;2.80;;
50633;SDS011;36596;55.798;38.462;2022-08-19T04:06:17;9.05;;;3.03;;
50633;SDS011;36596;55.798;38.462;2022-08-19T04:08:48;6.47;;;2.88;;
50633;SDS011;36596;55.798;38.462;2022-08-19T04:11:23;11.43;;;3.35;;
50633;SDS011;36596;55.798;38.462;2022-08-19T04:13:53;7.25;;;3.05;;
50633;SDS011;36596;55.798;38.462;2022-08-19T04:16:22;5.75;;;3.20;;
50633;SDS011;36596;55.798;38.462;2022-08-19T04:18:49;12.18;;;3.55;;
50633;SDS011;36596;55.798;38.462;2022-08-19T04:21:20;10.82;;;4.00;;
50633;SDS011;36596;55.798;38.462;2022-08-19T04:23:48;8.55;;;3.08;;
50633;SDS011;36596;55.798;38.462;2022-08-19T04:26:27;10.57;;;4.15;;
50633;SDS011;36596;55.798;38.462;2022-08-19T04:28:58;9.18;;;3.70;;
50633;SDS011;36596;55.798;38.462;2022-08-19T04:31:26;8.10;;;3.45;;
50633;SDS011;36596;55.798;38.462;2022-08-19T04:33:56;7.65;;;3.63;;
50633;SDS011;36596;55.798;38.462;2022-08-19T04:36:25;8.32;;;4.00;;
50633;SDS011;36596;55.798;38.462;2022-08-19T04:38:59;8.40;;;3.90;;
50633;SDS011;36596;55.798;38.462;2022-08-19T04:41:27;9.63;;;3.40;;
50633;SDS011;36596;55.798;38.462;2022-08-19T04:44:11;7.18;;;3.67;;
50633;SDS011;36596;55.798;38.462;2022-08-19T04:46:38;7.95;;;4.07;;
50633;SDS011;36596;55.798;38.462;2022-08-19T04:49:05;6.40;;;3.47;;
50633;SDS011;36596;55.798;38.462;2022-08-19T04:54:01;7.03;;;3.28;;
50633;SDS011;36596;55.798;38.462;2022-08-19T04:56:29;10.10;;;3.65;;
50633;SDS011;36596;55.798;38.462;2022-08-19T04:58:57;10.05;;;3.95;;
50633;SDS011;36596;55.798;38.462;2022-08-19T05:01:26;13.68;;;4.00;;
50633;SDS011;36596;55.798;38.462;2022-08-19T05:03:54;7.50;;;3.83;;
50633;SDS011;36596;55.798;38.462;2022-08-19T05:06:24;6.78;;;3.60;;
50633;SDS011;36596;55.798;38.462;2022-08-19T05:08:51;10.27;;;4.10;;
50633;SDS011;36596;55.798;38.462;2022-08-19T05:11:18;6.95;;;3.63;;
50633;SDS011;36596;55.798;38.462;2022-08-19T05:13:52;11.63;;;4.05;;
50633;SDS011;36596;55.798;38.462;2022-08-19T05:16:19;10.73;;;4.63;;
50633;SDS011;36596;55.798;38.462;2022-08-19T05:18:47;10.52;;;3.30;;
50633;SDS011;36596;55.798;38.462;2022-08-19T05:21:33;9.73;;;3.70;;
50633;SDS011;36596;55.798;38.462;2022-08-19T05:24:18;6.90;;;3.65;;
50633;SDS011;36596;55.798;38.462;2022-08-19T05:26:48;7.47;;;4.30;;
50633;SDS011;36596;55.798;38.462;2022-08-19T05:29:20;12.65;;;3.97;;
50633;SDS011;36596;55.798;38.462;2022-08-19T05:31:47;7.40;;;3.70;;
50633;SDS011;36596;55.798;38.462;2022-08-19T05:34:17;9.00;;;4.13;;
50633;SDS011;36596;55.798;38.462;2022-08-19T05:36:47;10.43;;;3.95;;
50633;SDS011;36596;55.798;38.462;2022-08-19T05:39:15;9.88;;;4.22;;
50633;SDS011;36596;55.798;38.462;2022-08-19T05:41:51;8.93;;;4.03;;
50633;SDS011;36596;55.798;38.462;2022-08-19T05:44:23;10.00;;;3.80;;
50633;SDS011;36596;55.798;38.462;2022-08-19T05:46:51;6.63;;;3.67;;
50633;SDS011;36596;55.798;38.462;2022-08-19T05:49:18;7.32;;;3.70;;
50633;SDS011;36596;55.798;38.462;2022-08-19T05:51:46;10.93;;;3.90;;
50633;SDS011;36596;55.798;38.462;2022-08-19T05:54:13;8.15;;;3.88;;
50633;SDS011;36596;55.798;38.462;2022-08-19T05:56:40;16.58;;;4.35;;
50633;SDS011;36596;55.798;38.462;2022-08-19T05:59:08;10.68;;;4.07;;
50633;SDS011;36596;55.798;38.462;2022-08-19T06:04:05;10.25;;;4.00;;
50633;SDS011;36596;55.798;38.462;2022-08-19T06:06:32;10.23;;;3.83;;
50633;SDS011;36596;55.798;38.462;2022-08-19T06:09:00;8.80;;;3.75;;
50633;SDS011;36596;55.798;38.462;2022-08-19T06:11:36;9.43;;;4.55;;
50633;SDS011;36596;55.798;38.462;2022-08-19T06:14:09;8.02;;;4.10;;
50633;SDS011;36596;55.798;38.462;2022-08-19T06:16:38;7.18;;;3.60;;
50633;SDS011;36596;55.798;38.462;2022-08-19T06:19:13;12.23;;;4.07;;
50633;SDS011;36596;55.798;38.462;2022-08-19T06:21:42;7.32;;;3.88;;
50633;SDS011;36596;55.798;38.462;2022-08-19T06:24:14;6.18;;;3.50;;
50633;SDS011;36596;55.798;38.462;2022-08-19T06:26:43;7.32;;;3.40;;
50633;SDS011;36596;55.798;38.462;2022-08-19T06:29:14;8.98;;;3.65;;
50633;SDS011;36596;55.798;38.462;2022-08-19T06:31:44;4.40;;;3.33;;
50633;SDS011;36596;55.798;38.462;2022-08-19T06:34:12;7.82;;;3.83;;
50633;SDS011;36596;55.798;38.462;2022-08-19T06:36:39;7.75;;;3.17;;
50633;SDS011;36596;55.798;38.462;2022-08-19T06:39:12;7.72;;;3.38;;
50633;SDS011;36596;55.798;38.462;2022-08-19T06:41:42;6.38;;;3.25;;
50633;SDS011;36596;55.798;38.462;2022-08-19T06:44:17;6.68;;;3.55;;
50633;SDS011;36596;55.798;38.462;2022-08-19T06:46:45;6.72;;;3.58;;
50633;SDS011;36596;55.798;38.462;2022-08-19T06:49:11;9.60;;;3.88;;
50633;SDS011;36596;55.798;38.462;2022-08-19T06:51:40;5.13;;;3.03;;
50633;SDS011;36596;55.798;38.462;2022-08-19T06:54:07;7.35;;;3.10;;
50633;SDS011;36596;55.798;38.462;2022-08-19T06:56:34;7.63;;;3.38;;
50633;SDS011;36596;55.798;38.462;2022-08-19T06:59:06;8.00;;;3.38;;
50633;SDS011;36596;55.798;38.462;2022-08-19T07:01:37;6.70;;;3.60;;
50633;SDS011;36596;55.798;38.462;2022-08-19T07:04:06;8.05;;;3.50;;
50633;SDS011;36596;55.798;38.462;2022-08-19T07:06:35;9.52;;;3.85;;
50633;SDS011;36596;55.798;38.462;2022-08-19T07:09:03;9.70;;;3.65;;
50633;SDS011;36596;55.798;38.462;2022-08-19T07:11:31;6.75;;;3.40;;
50633;SDS011;36596;55.798;38.462;2022-08-19T07:13:58;10.60;;;3.83;;
50633;SDS011;36596;55.798;38.462;2022-08-19T07:16:25;9.82;;;3.70;;
50633;SDS011;36596;55.798;38.462;2022-08-19T07:18:51;7.28;;;4.03;;
50633;SDS011;36596;55.798;38.462;2022-08-19T07:21:23;8.50;;;4.00;;
50633;SDS011;36596;55.798;38.462;2022-08-19T07:23:56;8.07;;;3.75;;
50633;SDS011;36596;55.798;38.462;2022-08-19T07:26:27;6.32;;;3.80;;
50633;SDS011;36596;55.798;38.462;2022-08-19T07:28:56;8.85;;;3.97;;
50633;SDS011;36596;55.798;38.462;2022-08-19T07:31:26;8.13;;;3.75;;
50633;SDS011;36596;55.798;38.462;2022-08-19T07:33:55;10.27;;;3.55;;
50633;SDS011;36596;55.798;38.462;2022-08-19T07:36:25;8.05;;;3.33;;
50633;SDS011;36596;55.798;38.462;2022-08-19T07:38:58;6.53;;;3.05;;
50633;SDS011;36596;55.798;38.462;2022-08-19T07:41:27;7.97;;;3.30;;
50633;SDS011;36596;55.798;38.462;2022-08-19T07:43:58;8.82;;;3.20;;
50633;SDS011;36596;55.798;38.462;2022-08-19T07:46:32;6.07;;;2.80;;
50633;SDS011;36596;55.798;38.462;2022-08-19T07:49:00;4.47;;;2.33;;
50633;SDS011;36596;55.798;38.462;2022-08-19T07:51:27;12.77;;;4.78;;
50633;SDS011;36596;55.798;38.462;2022-08-19T07:53:53;7.97;;;2.67;;
50633;SDS011;36596;55.798;38.462;2022-08-19T07:56:20;9.82;;;3.90;;
50633;SDS011;36596;55.798;38.462;2022-08-19T07:58:49;8.68;;;3.22;;
50633;SDS011;36596;55.798;38.462;2022-08-19T08:01:17;13.02;;;3.88;;
50633;SDS011;36596;55.798;38.462;2022-08-19T08:03:46;7.63;;;4.00;;
50633;SDS011;36596;55.798;38.462;2022-08-19T08:06:37;10.00;;;3.88;;
50633;SDS011;36596;55.798;38.462;2022-08-19T08:09:23;6.22;;;3.45;;
50633;SDS011;36596;55.798;38.462;2022-08-19T08:12:03;5.35;;;3.47;;
50633;SDS011;36596;55.798;38.462;2022-08-19T08:14:40;4.45;;;2.88;;
50633;SDS011;36596;55.798;38.462;2022-08-19T08:17:17;5.45;;;2.53;;
50633;SDS011;36596;55.798;38.462;2022-08-19T08:19:48;5.80;;;2.97;;
50633;SDS011;36596;55.798;38.462;2022-08-19T08:22:20;5.87;;;2.30;;
50633;SDS011;36596;55.798;38.462;2022-08-19T08:27:39;4.93;;;1.98;;
50633;SDS011;36596;55.798;38.462;2022-08-19T08:30:09;3.72;;;2.05;;
50633;SDS011;36596;55.798;38.462;2022-08-19T08:32:38;13.27;;;1.77;;
50633;SDS011;36596;55.798;38.462;2022-08-19T08:37:34;6.43;;;2.25;;
50633;SDS011;36596;55.798;38.462;2022-08-19T08:40:05;5.75;;;1.90;;
50633;SDS011;36596;55.798;38.462;2022-08-19T08:42:44;2.65;;;1.55;;
50633;SDS011;36596;55.798;38.462;2022-08-19T08:45:19;4.90;;;1.90;;
50633;SDS011;36596;55.798;38.462;2022-08-19T08:47:47;4.60;;;1.67;;
50633;SDS011;36596;55.798;38.462;2022-08-19T08:50:21;6.15;;;1.95;;
50633;SDS011;36596;55.798;38.462;2022-08-19T08:52:57;5.88;;;2.20;;
50633;SDS011;36596;55.798;38.462;2022-08-19T08:55:26;6.57;;;1.77;;
50633;SDS011;36596;55.798;38.462;2022-08-19T08:57:57;3.97;;;1.40;;
50633;SDS011;36596;55.798;38.462;2022-08-19T09:00:30;9.82;;;1.55;;
50633;SDS011;36596;55.798;38.462;2022-08-19T09:02:59;3.95;;;1.48;;
50633;SDS011;36596;55.798;38.462;2022-08-19T09:11:19;4.50;;;1.02;;
50633;SDS011;36596;55.798;38.462;2022-08-19T09:16:41;10.93;;;2.10;;
50633;SDS011;36596;55.798;38.462;2022-08-19T09:19:07;7.10;;;2.20;;
50633;SDS011;36596;55.798;38.462;2022-08-19T09:21:37;4.50;;;1.42;;
50633;SDS011;36596;55.798;38.462;2022-08-19T09:24:06;4.32;;;1.15;;
50633;SDS011;36596;55.798;38.462;2022-08-19T09:26:32;5.78;;;1.05;;
50633;SDS011;36596;55.798;38.462;2022-08-19T09:29:02;5.40;;;1.25;;
50633;SDS011;36596;55.798;38.462;2022-08-19T09:31:31;5.93;;;1.20;;
50633;SDS011;36596;55.798;38.462;2022-08-19T09:33:58;10.23;;;2.05;;
50633;SDS011;36596;55.798;38.462;2022-08-19T09:36:32;4.50;;;1.05;;
50633;SDS011;36596;55.798;38.462;2022-08-19T09:39:03;4.85;;;1.17;;
50633;SDS011;36596;55.798;38.462;2022-08-19T09:41:29;8.30;;;2.50;;
50633;SDS011;36596;55.798;38.462;2022-08-19T09:43:55;4.05;;;1.38;;
50633;SDS011;36596;55.798;38.462;2022-08-19T09:46:23;3.78;;;1.17;;
50633;SDS011;36596;55.798;38.462;2022-08-19T09:48:56;3.38;;;1.27;;
50633;SDS011;36596;55.798;38.462;2022-08-19T09:51:25;3.55;;;1.17;;
50633;SDS011;36596;55.798;38.462;2022-08-19T09:53:59;4.80;;;1.13;;
50633;SDS011;36596;55.798;38.462;2022-08-19T09:56:26;4.43;;;1.38;;
50633;SDS011;36596;55.798;38.462;2022-08-19T09:58:57;3.08;;;1.20;;
50633;SDS011;36596;55.798;38.462;2022-08-19T10:01:26;7.47;;;1.75;;
50633;SDS011;36596;55.798;38.462;2022-08-19T10:03:56;6.50;;;1.20;;
50633;SDS011;36596;55.798;38.462;2022-08-19T10:06:24;5.13;;;1.10;;
50633;SDS011;36596;55.798;38.462;2022-08-19T10:08:55;5.20;;;1.20;;
50633;SDS011;36596;55.798;38.462;2022-08-19T10:11:21;2.80;;;1.15;;
50633;SDS011;36596;55.798;38.462;2022-08-19T10:13:48;2.03;;;1.00;;
50633;SDS011;36596;55.798;38.462;2022-08-19T10:16:20;3.80;;;1.00;;
50633;SDS011;36596;55.798;38.462;2022-08-19T10:18:48;4.60;;;1.35;;
50633;SDS011;36596;55.798;38.462;2022-08-19T10:21:20;3.67;;;1.13;;
50633;SDS011;36596;55.798;38.462;2022-08-19T10:23:50;5.63;;;1.02;;
50633;SDS011;36596;55.798;38.462;2022-08-19T10:26:19;3.83;;;1.17;;
50633;SDS011;36596;55.798;38.462;2022-08-19T10:28:52;6.18;;;1.60;;
50633;SDS011;36596;55.798;38.462;2022-08-19T10:31:22;3.90;;;0.95;;
50633;SDS011;36596;55.798;38.462;2022-08-19T10:33:56;3.30;;;1.40;;
50633;SDS011;36596;55.798;38.462;2022-08-19T10:36:27;6.45;;;1.10;;
50633;SDS011;36596;55.798;38.462;2022-08-19T10:38:58;2.72;;;1.10;;
50633;SDS011;36596;55.798;38.462;2022-08-19T10:41:28;4.18;;;1.25;;
50633;SDS011;36596;55.798;38.462;2022-08-19T10:44:03;5.38;;;1.38;;
50633;SDS011;36596;55.798;38.462;2022-08-19T10:46:33;3.47;;;1.25;;
50633;SDS011;36596;55.798;38.462;2022-08-19T10:49:02;4.70;;;1.33;;
50633;SDS011;36596;55.798;38.462;2022-08-19T10:51:30;2.75;;;1.23;;
50633;SDS011;36596;55.798;38.462;2022-08-19T10:54:16;3.53;;;1.17;;
50633;SDS011;36596;55.798;38.462;2022-08-19T10:56:43;2.95;;;1.40;;
50633;SDS011;36596;55.798;38.462;2022-08-19T11:01:46;5.43;;;1.83;;
50633;SDS011;36596;55.798;38.462;2022-08-19T11:04:13;5.53;;;1.30;;
50633;SDS011;36596;55.798;38.462;2022-08-19T11:07:14;6.30;;;1.60;;
50633;SDS011;36596;55.798;38.462;2022-08-19T11:09:51;5.35;;;1.65;;
50633;SDS011;36596;55.798;38.462;2022-08-19T11:12:25;4.75;;;1.40;;
50633;SDS011;36596;55.798;38.462;2022-08-19T11:14:52;5.20;;;1.55;;
50633;SDS011;36596;55.798;38.462;2022-08-19T11:17:28;3.60;;;1.52;;
50633;SDS011;36596;55.798;38.462;2022-08-19T11:19:58;10.00;;;1.70;;
50633;SDS011;36596;55.798;38.462;2022-08-19T11:22:28;5.63;;;1.65;;
50633;SDS011;36596;55.798;38.462;2022-08-19T11:24:55;6.05;;;1.50;;
50633;SDS011;36596;55.798;38.462;2022-08-19T11:27:22;5.78;;;1.67;;
50633;SDS011;36596;55.798;38.462;2022-08-19T11:29:49;3.53;;;1.45;;
50633;SDS011;36596;55.798;38.462;2022-08-19T11:32:16;3.20;;;1.48;;
50633;SDS011;36596;55.798;38.462;2022-08-19T11:34:42;8.02;;;1.40;;
50633;SDS011;36596;55.798;38.462;2022-08-19T11:37:10;4.00;;;1.67;;
50633;SDS011;36596;55.798;38.462;2022-08-19T11:39:35;8.10;;;1.45;;
50633;SDS011;36596;55.798;38.462;2022-08-19T11:42:02;3.42;;;1.30;;
50633;SDS011;36596;55.798;38.462;2022-08-19T11:44:52;5.55;;;1.60;;
50633;SDS011;36596;55.798;38.462;2022-08-19T11:47:18;6.38;;;1.60;;
50633;SDS011;36596;55.798;38.462;2022-08-19T11:49:45;5.15;;;1.60;;
50633;SDS011;36596;55.798;38.462;2022-08-19T11:52:11;3.47;;;1.40;;
50633;SDS011;36596;55.798;38.462;2022-08-19T11:54:37;4.38;;;1.50;;
50633;SDS011;36596;55.798;38.462;2022-08-19T11:57:04;6.90;;;1.90;;
50633;SDS011;36596;55.798;38.462;2022-08-19T11:59:30;4.07;;;1.17;;
50633;SDS011;36596;55.798;38.462;2022-08-19T12:01:56;4.72;;;1.60;;
50633;SDS011;36596;55.798;38.462;2022-08-19T12:04:23;5.97;;;1.58;;
50633;SDS011;36596;55.798;38.462;2022-08-19T12:06:51;5.85;;;1.50;;
50633;SDS011;36596;55.798;38.462;2022-08-19T12:09:18;7.07;;;1.60;;
50633;SDS011;36596;55.798;38.462;2022-08-19T12:11:48;4.72;;;1.55;;
50633;SDS011;36596;55.798;38.462;2022-08-19T12:14:16;4.80;;;1.30;;
50633;SDS011;36596;55.798;38.462;2022-08-19T12:16:43;4.55;;;1.70;;
50633;SDS011;36596;55.798;38.462;2022-08-19T12:19:11;3.15;;;1.48;;
50633;SDS011;36596;55.798;38.462;2022-08-19T12:21:39;6.75;;;1.80;;
50633;SDS011;36596;55.798;38.462;2022-08-19T12:24:07;2.38;;;1.40;;
50633;SDS011;36596;55.798;38.462;2022-08-19T12:26:34;4.47;;;1.60;;
50633;SDS011;36596;55.798;38.462;2022-08-19T12:29:00;6.30;;;1.42;;
50633;SDS011;36596;55.798;38.462;2022-08-19T12:31:26;6.55;;;1.50;;
50633;SDS011;36596;55.798;38.462;2022-08-19T12:33:53;8.10;;;1.83;;
50633;SDS011;36596;55.798;38.462;2022-08-19T12:36:22;8.25;;;1.40;;
50633;SDS011;36596;55.798;38.462;2022-08-19T12:38:48;7.93;;;1.83;;
50633;SDS011;36596;55.798;38.462;2022-08-19T12:41:15;3.88;;;1.40;;
50633;SDS011;36596;55.798;38.462;2022-08-19T12:43:43;3.60;;;1.65;;
50633;SDS011;36596;55.798;38.462;2022-08-19T12:46:10;4.45;;;1.55;;
50633;SDS011;36596;55.798;38.462;2022-08-19T12:48:39;6.57;;;1.42;;
50633;SDS011;36596;55.798;38.462;2022-08-19T12:51:11;5.25;;;1.50;;
50633;SDS011;36596;55.798;38.462;2022-08-19T12:53:40;8.02;;;1.45;;
50633;SDS011;36596;55.798;38.462;2022-08-19T12:56:07;4.85;;;1.98;;
50633;SDS011;36596;55.798;38.462;2022-08-19T12:58:34;4.53;;;1.38;;
50633;SDS011;36596;55.798;38.462;2022-08-19T13:01:10;3.08;;;1.58;;
50633;SDS011;36596;55.798;38.462;2022-08-19T13:03:38;3.80;;;1.77;;
50633;SDS011;36596;55.798;38.462;2022-08-19T13:06:05;4.93;;;1.45;;
50633;SDS011;36596;55.798;38.462;2022-08-19T13:08:32;4.05;;;1.60;;
50633;SDS011;36596;55.798;38.462;2022-08-19T13:11:06;7.80;;;1.70;;
50633;SDS011;36596;55.798;38.462;2022-08-19T13:13:42;5.93;;;1.63;;
50633;SDS011;36596;55.798;38.462;2022-08-19T13:16:10;7.45;;;1.73;;
50633;SDS011;36596;55.798;38.462;2022-08-19T13:18:39;6.22;;;1.48;;
50633;SDS011;36596;55.798;38.462;2022-08-19T13:21:14;8.07;;;1.83;;
50633;SDS011;36596;55.798;38.462;2022-08-19T13:24:23;4.75;;;1.60;;
50633;SDS011;36596;55.798;38.462;2022-08-19T13:26:49;4.47;;;1.33;;
50633;SDS011;36596;55.798;38.462;2022-08-19T13:29:15;7.57;;;2.10;;
50633;SDS011;36596;55.798;38.462;2022-08-19T13:31:59;5.70;;;1.70;;
50633;SDS011;36596;55.798;38.462;2022-08-19T13:34:44;10.10;;;1.45;;
50633;SDS011;36596;55.798;38.462;2022-08-19T13:37:11;6.82;;;1.60;;
50633;SDS011;36596;55.798;38.462;2022-08-19T13:39:38;6.30;;;1.75;;
50633;SDS011;36596;55.798;38.462;2022-08-19T13:42:04;5.78;;;2.03;;
50633;SDS011;36596;55.798;38.462;2022-08-19T13:44:30;7.25;;;1.73;;
50633;SDS011;36596;55.798;38.462;2022-08-19T13:47:00;4.53;;;1.25;;
50633;SDS011;36596;55.798;38.462;2022-08-19T13:49:31;8.77;;;1.83;;
50633;SDS011;36596;55.798;38.462;2022-08-19T13:51:57;6.47;;;1.80;;
50633;SDS011;36596;55.798;38.462;2022-08-19T13:54:23;4.55;;;1.45;;
50633;SDS011;36596;55.798;38.462;2022-08-19T13:56:49;6.43;;;1.70;;
50633;SDS011;36596;55.798;38.462;2022-08-19T13:59:15;5.88;;;1.55;;
50633;SDS011;36596;55.798;38.462;2022-08-19T14:01:41;9.00;;;1.60;;
50633;SDS011;36596;55.798;38.462;2022-08-19T14:04:07;4.50;;;1.90;;
50633;SDS011;36596;55.798;38.462;2022-08-19T14:06:33;5.40;;;1.77;;
50633;SDS011;36596;55.798;38.462;2022-08-19T14:08:59;8.02;;;1.63;;
50633;SDS011;36596;55.798;38.462;2022-08-19T14:11:27;8.30;;;2.08;;
50633;SDS011;36596;55.798;38.462;2022-08-19T14:13:54;5.15;;;1.77;;
50633;SDS011;36596;55.798;38.462;2022-08-19T14:16:20;4.80;;;1.50;;
50633;SDS011;36596;55.798;38.462;2022-08-19T14:18:47;4.07;;;1.98;;
50633;SDS011;36596;55.798;38.462;2022-08-19T14:21:17;5.30;;;1.90;;
50633;SDS011;36596;55.798;38.462;2022-08-19T14:23:45;7.13;;;1.70;;
50633;SDS011;36596;55.798;38.462;2022-08-19T14:26:13;4.78;;;1.65;;
50633;SDS011;36596;55.798;38.462;2022-08-19T14:28:41;7.20;;;2.30;;
50633;SDS011;36596;55.798;38.462;2022-08-19T14:31:08;5.45;;;1.27;;
50633;SDS011;36596;55.798;38.462;2022-08-19T14:33:35;2.67;;;1.53;;
50633;SDS011;36596;55.798;38.462;2022-08-19T14:36:02;5.60;;;1.45;;
50633;SDS011;36596;55.798;38.462;2022-08-19T14:38:31;6.82;;;1.42;;
50633;SDS011;36596;55.798;38.462;2022-08-19T14:41:07;6.88;;;1.52;;
50633;SDS011;36596;55.798;38.462;2022-08-19T14:43:39;7.93;;;1.80;;
50633;SDS011;36596;55.798;38.462;2022-08-19T14:46:05;5.63;;;1.48;;
50633;SDS011;36596;55.798;38.462;2022-08-19T14:48:31;6.68;;;1.73;;
50633;SDS011;36596;55.798;38.462;2022-08-19T14:50:57;6.68;;;1.77;;
50633;SDS011;36596;55.798;38.462;2022-08-19T14:53:23;8.75;;;1.88;;
50633;SDS011;36596;55.798;38.462;2022-08-19T14:55:51;9.35;;;2.00;;
50633;SDS011;36596;55.798;38.462;2022-08-19T14:58:16;7.05;;;2.05;;
50633;SDS011;36596;55.798;38.462;2022-08-19T15:00:43;8.30;;;1.40;;
50633;SDS011;36596;55.798;38.462;2022-08-19T15:03:08;4.47;;;1.45;;
50633;SDS011;36596;55.798;38.462;2022-08-19T15:05:35;5.22;;;1.40;;
50633;SDS011;36596;55.798;38.462;2022-08-19T15:08:04;7.00;;;1.52;;
50633;SDS011;36596;55.798;38.462;2022-08-19T15:10:30;3.53;;;1.38;;
50633;SDS011;36596;55.798;38.462;2022-08-19T15:12:58;5.45;;;1.40;;